createdAt,value
2018-08-16T00:04:30.719Z,22.00
2018-08-16T00:09:33.859Z,22.00
2018-08-16T00:14:36.935Z,21.90
2018-08-16T00:19:40.760Z,21.90
2018-08-16T00:24:43.868Z,21.90
2018-08-16T00:29:46.976Z,21.90
2018-08-16T00:34:50.059Z,21.80
2018-08-16T00:39:53.288Z,21.80
2018-08-16T00:44:56.429Z,21.70
2018-08-16T00:49:59.564Z,21.70
2018-08-16T00:55:02.694Z,21.60
2018-08-16T01:00:06.811Z,21.60
2018-08-16T01:05:10.144Z,21.60
2018-08-16T01:10:14.282Z,21.50
2018-08-16T01:15:17.393Z,21.50
2018-08-16T01:20:20.633Z,21.40
2018-08-16T01:25:26.001Z,21.40
2018-08-16T01:30:29.115Z,21.30
2018-08-16T01:35:32.287Z,21.30
2018-08-16T01:40:35.335Z,21.20
2018-08-16T01:45:38.424Z,21.20
2018-08-16T01:50:41.783Z,21.20
2018-08-16T01:55:44.895Z,21.20
2018-08-16T02:00:47.967Z,21.10
2018-08-16T02:05:51.059Z,21.10
2018-08-16T02:10:54.314Z,21.10
2018-08-16T02:15:57.415Z,21.00
2018-08-16T02:21:00.542Z,21.00
2018-08-16T02:26:03.636Z,20.90
2018-08-16T02:31:06.735Z,20.90
2018-08-16T02:36:09.817Z,20.90
2018-08-16T02:41:12.902Z,20.80
2018-08-16T02:46:16.180Z,20.80
2018-08-16T02:51:19.287Z,20.80
2018-08-16T02:56:22.387Z,20.70
2018-08-16T03:01:25.463Z,20.70
2018-08-16T03:06:28.588Z,20.70
2018-08-16T03:11:31.677Z,20.60
2018-08-16T03:16:34.779Z,20.60
2018-08-16T03:21:37.899Z,20.50
2018-08-16T03:26:40.991Z,20.50
2018-08-16T03:31:44.141Z,20.50
2018-08-16T03:36:47.172Z,20.50
2018-08-16T03:41:50.263Z,20.50
2018-08-16T03:46:53.355Z,20.40
2018-08-16T03:51:56.492Z,20.40
2018-08-16T03:56:59.601Z,20.40
2018-08-16T04:02:02.711Z,20.30
2018-08-16T04:07:05.796Z,20.30
2018-08-16T04:12:09.004Z,20.20
2018-08-16T04:17:12.107Z,20.20
2018-08-16T04:22:15.239Z,20.20
2018-08-16T04:27:18.348Z,20.20
2018-08-16T04:32:21.451Z,20.10
2018-08-16T04:37:24.556Z,20.10
2018-08-16T04:42:27.648Z,20.10
2018-08-16T04:47:30.748Z,20.00
2018-08-16T04:52:33.856Z,20.00
2018-08-16T04:57:37.667Z,20.00
2018-08-16T05:02:40.771Z,20.00
2018-08-16T05:07:43.843Z,20.00
2018-08-16T05:12:46.931Z,20.00
2018-08-16T05:17:50.036Z,20.00
2018-08-16T05:22:53.131Z,20.00
2018-08-16T05:27:56.244Z,20.00
2018-08-16T05:32:59.335Z,20.00
2018-08-16T05:38:02.474Z,20.10
2018-08-16T05:43:05.616Z,20.20
2018-08-16T05:48:08.760Z,20.20
2018-08-16T05:53:11.831Z,20.30
2018-08-16T05:58:14.923Z,20.40
2018-08-16T06:03:18.035Z,20.50
2018-08-16T06:08:21.140Z,20.70
2018-08-16T06:13:24.259Z,20.70
2018-08-16T06:18:27.379Z,20.80
2018-08-16T06:23:30.475Z,20.90
2018-08-16T06:28:33.692Z,21.00
2018-08-16T06:33:36.891Z,21.10
2018-08-16T06:38:39.991Z,21.20
2018-08-16T06:43:43.079Z,21.40
2018-08-16T06:48:46.179Z,21.50
2018-08-16T06:53:49.289Z,21.70
2018-08-16T06:58:52.386Z,21.80
2018-08-16T07:03:55.484Z,21.90
2018-08-16T07:08:58.602Z,22.00
2018-08-16T07:14:01.697Z,22.10
2018-08-16T07:19:04.806Z,22.30
2018-08-16T07:24:08.055Z,22.60
2018-08-16T07:29:11.139Z,22.70
2018-08-16T07:34:14.248Z,22.90
2018-08-16T07:39:17.340Z,23.00
2018-08-16T07:44:20.454Z,23.20
2018-08-16T07:49:23.737Z,23.30
2018-08-16T07:54:26.880Z,23.60
2018-08-16T07:59:29.982Z,23.70
2018-08-16T08:04:33.184Z,24.00
2018-08-16T08:09:36.369Z,24.10
2018-08-16T08:14:39.387Z,24.30
2018-08-16T08:19:42.499Z,24.40
2018-08-16T08:24:45.619Z,24.70
2018-08-16T08:29:48.748Z,24.90
2018-08-16T08:34:51.831Z,25.10
2018-08-16T08:39:54.941Z,25.20
2018-08-16T08:44:58.144Z,25.30
2018-08-16T08:50:01.249Z,25.40
2018-08-16T08:55:15.760Z,25.60
2018-08-16T09:00:18.892Z,25.80
2018-08-16T09:05:22.037Z,26.00
2018-08-16T09:10:50.595Z,26.20
2018-08-16T09:15:53.997Z,26.30
2018-08-16T09:20:57.206Z,26.50
2018-08-16T09:26:00.318Z,26.70
2018-08-16T09:31:14.990Z,26.90
2018-08-16T09:36:18.066Z,27.00
2018-08-16T09:41:21.195Z,27.10
2018-08-16T09:46:46.741Z,27.30
2018-08-16T09:51:49.839Z,27.40
2018-08-16T09:56:53.581Z,27.60
2018-08-16T10:01:56.667Z,27.80
2018-08-16T10:06:59.880Z,28.00
2018-08-16T10:12:03.417Z,28.10
2018-08-16T10:17:06.520Z,28.30
2018-08-16T10:22:09.632Z,28.50
2018-08-16T10:27:12.774Z,28.70
2018-08-16T10:32:15.874Z,28.90
2018-08-16T10:37:18.978Z,29.10
2018-08-16T10:42:22.090Z,29.20
2018-08-16T10:47:25.213Z,29.30
2018-08-16T10:52:28.410Z,29.50
2018-08-16T10:57:31.545Z,29.70
2018-08-16T11:02:34.751Z,29.90
2018-08-16T11:07:38.355Z,30.00
2018-08-16T11:12:41.364Z,30.00
2018-08-16T11:17:44.588Z,30.20
2018-08-16T11:22:47.699Z,30.30
2018-08-16T11:27:50.825Z,30.50
2018-08-16T11:32:53.981Z,30.70
2018-08-16T11:39:00.671Z,30.80
2018-08-16T11:44:03.949Z,31.00
2018-08-16T11:49:07.051Z,31.20
2018-08-16T11:54:10.236Z,31.30
2018-08-16T11:59:13.367Z,31.40
2018-08-16T12:04:16.480Z,31.60
2018-08-16T12:09:19.589Z,31.70
2018-08-16T12:14:22.695Z,31.80
2018-08-16T12:19:25.847Z,31.90
2018-08-16T12:24:28.945Z,32.10
2018-08-16T12:29:32.027Z,32.20
2018-08-16T12:34:35.454Z,32.30
2018-08-16T12:39:38.633Z,32.50
2018-08-16T12:44:41.752Z,32.60
2018-08-16T12:49:44.868Z,32.80
2018-08-16T12:54:48.005Z,32.90
2018-08-16T12:59:51.124Z,33.00
2018-08-16T13:04:54.227Z,33.10
2018-08-16T13:09:57.416Z,33.20
2018-08-16T13:15:01.530Z,33.30
2018-08-16T13:20:05.134Z,33.30
2018-08-16T13:25:08.951Z,33.40
2018-08-16T13:30:12.056Z,33.40
2018-08-16T13:35:15.171Z,33.40
2018-08-16T13:40:18.272Z,33.50
2018-08-16T13:45:21.379Z,33.60
2018-08-16T13:50:24.640Z,33.60
2018-08-16T13:55:27.763Z,33.60
2018-08-16T14:00:30.851Z,33.50
2018-08-16T14:05:33.952Z,33.50
2018-08-16T14:10:37.055Z,33.50
2018-08-16T14:15:40.159Z,33.50
2018-08-16T14:20:43.293Z,33.40
2018-08-16T14:30:55.852Z,33.50
2018-08-16T14:35:58.961Z,33.50
2018-08-16T14:41:02.067Z,33.30
2018-08-16T14:46:05.200Z,33.20
2018-08-16T14:51:08.303Z,33.10
2018-08-16T14:56:11.427Z,33.10
2018-08-16T15:01:14.527Z,33.00
2018-08-16T15:06:17.620Z,33.00
2018-08-16T15:11:20.853Z,33.00
2018-08-16T15:16:23.980Z,33.00
2018-08-16T15:21:27.123Z,32.90
2018-08-16T15:26:30.237Z,32.80
2018-08-16T15:31:33.340Z,32.80
2018-08-16T15:36:36.435Z,32.70
2018-08-16T15:41:39.556Z,32.60
2018-08-16T15:46:42.675Z,32.50
2018-08-16T15:51:45.795Z,32.30
2018-08-16T15:56:48.905Z,32.20
2018-08-16T16:01:51.995Z,32.20
2018-08-16T16:06:55.165Z,32.10
2018-08-16T16:11:58.304Z,32.00
2018-08-16T16:17:02.246Z,31.90
2018-08-16T16:22:05.476Z,31.80
2018-08-16T16:27:08.623Z,31.70
2018-08-16T16:32:11.755Z,31.70
2018-08-16T16:37:14.963Z,31.70
2018-08-16T16:42:18.063Z,31.50
2018-08-16T16:47:21.164Z,31.50
2018-08-16T16:52:24.400Z,31.50
2018-08-16T16:57:27.592Z,31.50
2018-08-16T17:02:30.800Z,31.40
2018-08-16T17:07:33.989Z,31.30
2018-08-16T17:12:37.096Z,31.20
2018-08-16T17:17:41.080Z,31.20
2018-08-16T17:22:44.263Z,31.10
2018-08-16T17:27:47.385Z,31.00
2018-08-16T17:32:50.623Z,30.90
2018-08-16T17:37:53.732Z,30.80
2018-08-16T17:42:56.816Z,30.70
2018-08-16T17:48:00.009Z,30.60
2018-08-16T17:53:03.128Z,30.50
2018-08-16T17:58:06.225Z,30.40
2018-08-16T18:03:09.332Z,30.40
2018-08-16T18:08:12.460Z,30.20
2018-08-16T18:13:15.624Z,30.20
2018-08-16T18:18:18.724Z,30.10
2018-08-16T18:23:21.941Z,30.00
2018-08-16T18:28:25.036Z,29.90
2018-08-16T18:33:28.131Z,29.80
2018-08-16T18:38:31.243Z,29.70
2018-08-16T18:43:34.336Z,29.50
2018-08-16T18:48:37.487Z,29.40
2018-08-16T18:53:40.605Z,29.30
2018-08-16T18:58:43.792Z,29.20
2018-08-16T19:03:46.924Z,29.10
2018-08-16T19:08:50.154Z,28.90
2018-08-16T19:13:53.271Z,28.90
2018-08-16T19:18:56.444Z,28.70
2018-08-16T19:23:59.556Z,28.60
2018-08-16T19:29:02.779Z,28.50
2018-08-16T19:34:05.879Z,28.40
2018-08-16T19:39:10.839Z,28.30
2018-08-16T19:44:13.995Z,28.10
2018-08-16T19:49:17.123Z,28.00
2018-08-16T19:54:20.224Z,27.90
2018-08-16T19:59:23.376Z,27.80
2018-08-16T20:04:26.505Z,27.70
2018-08-16T20:09:29.622Z,27.60
2018-08-16T20:14:32.725Z,27.50
2018-08-16T20:19:35.963Z,27.40
2018-08-16T20:24:38.940Z,27.30
2018-08-16T20:29:42.316Z,27.20
2018-08-16T20:34:45.523Z,27.10
2018-08-16T20:39:48.620Z,27.00
2018-08-16T20:44:52.583Z,26.90
2018-08-16T20:49:55.691Z,26.80
2018-08-16T20:54:58.827Z,26.70
2018-08-16T21:00:01.966Z,26.70
2018-08-16T21:05:05.299Z,26.60
2018-08-16T21:10:09.455Z,26.50
2018-08-16T21:15:12.584Z,26.50
2018-08-16T21:20:15.783Z,26.40
2018-08-16T21:25:18.891Z,26.30
2018-08-16T21:30:22.054Z,26.20
2018-08-16T21:35:25.123Z,26.10
2018-08-16T21:40:28.306Z,26.10
2018-08-16T21:45:31.324Z,26.00
2018-08-16T21:50:34.455Z,25.80
2018-08-16T21:55:37.581Z,25.70
2018-08-16T22:00:50.971Z,25.70
2018-08-16T22:06:02.964Z,25.70
2018-08-16T22:11:06.816Z,25.60
2018-08-16T22:16:09.968Z,25.50
2018-08-16T22:21:13.151Z,25.40
2018-08-16T22:26:16.309Z,25.40
2018-08-16T22:31:19.504Z,25.30
2018-08-16T22:36:22.599Z,25.20
2018-08-16T22:41:25.823Z,25.00
2018-08-16T22:46:28.931Z,25.00
2018-08-16T22:56:41.512Z,24.80
2018-08-16T23:01:44.628Z,24.80
2018-08-16T23:06:47.776Z,24.80
2018-08-16T23:11:50.895Z,24.70
2018-08-16T23:16:54.010Z,24.60
2018-08-16T23:21:57.099Z,24.60
2018-08-16T23:27:00.221Z,24.50
2018-08-16T23:32:03.304Z,24.50
2018-08-16T23:37:06.704Z,24.40
2018-08-16T23:42:09.797Z,24.30
2018-08-16T23:47:12.880Z,24.30
2018-08-16T23:52:16.020Z,24.20
2018-08-16T23:57:19.498Z,24.10
